Overview Statistics Trail Chart Weather Telemetry Raw packets
 

This is the latest recevied weather packets stored in our database for station/object VK5GR-12. If no packets are shown the sender has not sent any weather packets the latest 10 day(s).

<< 33 34 35 36 37 38 39 >>
Time Temp. Humidity Pressure Rain* Wind** Luminosity Snow
1787879218 20° C 51% 1030.1 hPa 0 mm - 473 W/m² -
1787878315 20° C 53% 1030.1 hPa 0 mm - 448 W/m² -
1787877413 18.89° C 55% 1030 hPa 0 mm - 419 W/m² -
1787876509 17.78° C 61% 1029.9 hPa 0 mm - 390 W/m² -
1787875609 17.22° C 64% 1029.9 hPa 0 mm - 357 W/m² -
1787874709 16.67° C 66% 1029.9 hPa 0 mm - 281 W/m² -
1787873808 16.67° C 64% 1030 hPa 0 mm - 308 W/m² -
1787872907 15.56° C 67% 1029.8 hPa 0 mm - 238 W/m² -
1787872004 13.89° C 71% 1029.7 hPa 0 mm - 71 W/m² -
1787871101 12.78° C 74% 1029.5 hPa 0 mm - 118 W/m² -
1787870196 12.78° C 75% 1029.4 hPa 0 mm - 57 W/m² -
1787869292 12.22° C 75% 1029.1 hPa 0 mm - 49 W/m² -
1787868388 11.67° C 78% 1029 hPa 0 mm - 44 W/m² -
1787867486 10.56° C 80% 1028.8 hPa 0 mm - 33 W/m² -
1787866582 10.56° C 81% 1028.8 hPa 0 mm - 22 W/m² -
1787865678 10.56° C 80% 1028.6 hPa 0 mm - 8 W/m² -
1787864773 10.56° C 81% 1028.4 hPa 0 mm - 2 W/m² -
1787863868 10° C 82% 1028.3 hPa 0 mm - 0 W/m² -
1787862969 10.56° C 81% 1028.1 hPa 0 mm - 0 W/m² -
1787862066 10.56° C 81% 1027.9 hPa 0 mm - 0 W/m² -
1787861165 10° C 82% 1027.9 hPa 0 mm - 0 W/m² -
1787860260 10° C 82% 1027.8 hPa 0 mm - 0 W/m² -
1787859355 10° C 83% 1027.7 hPa 0 mm - 0 W/m² -
1787858455 10° C 83% 1027.7 hPa 0 mm - 0 W/m² -
1787857558 10° C 82% 1027.4 hPa 0 mm - 0 W/m² -

* Rain latest hour (hover to see other rain measurements)
** Current wind speed in m/s (hover to see current wind gust speed)